Time;durP1;ratioP1;P1;durP2;ratioP2;P2;SDS_P1;SDS_P2;PMS_P1;PMS_P2;Temp;Humidity;BMP_temperature;BMP_pressure;BME280_temperature;BME280_humidity;BME280_pressure;Samples;Min_cycle;Max_cycle;Signal;HPM_P1;HPM_P2
2021/08/15 00:01:17;;;;;;;14.40;6.28;;;16.40;99.90;;;;;;5056938;28;20243;-85
2021/08/15 00:03:44;;;;;;;16.48;6.18;;;16.60;99.90;;;;;;5053173;28;20300;-84
2021/08/15 00:06:11;;;;;;;13.43;5.60;;;16.70;99.90;;;;;;5055824;28;20214;-84
2021/08/15 00:08:39;;;;;;;15.63;7.53;;;16.70;99.90;;;;;;5056130;28;20716;-86
2021/08/15 00:11:06;;;;;;;10.98;5.97;;;16.60;99.90;;;;;;5056747;28;20267;-84
2021/08/15 00:13:33;;;;;;;14.50;6.95;;;16.50;99.90;;;;;;5064872;28;20245;-85
2021/08/15 00:16:00;;;;;;;12.95;7.10;;;16.50;99.90;;;;;;5057937;28;20303;-85
2021/08/15 00:18:27;;;;;;;13.87;6.53;;;16.50;99.90;;;;;;5057685;28;20243;-84
2021/08/15 00:20:54;;;;;;;11.77;6.40;;;16.50;99.90;;;;;;5064322;28;20223;-84
2021/08/15 00:23:21;;;;;;;12.27;7.03;;;16.50;99.90;;;;;;5055653;28;20203;-86
2021/08/15 00:25:49;;;;;;;17.60;6.60;;;16.50;99.90;;;;;;5058495;28;20222;-85
2021/08/15 00:28:16;;;;;;;11.35;5.90;;;16.50;99.90;;;;;;5058403;28;20357;-85
2021/08/15 00:30:43;;;;;;;14.20;7.07;;;16.40;99.90;;;;;;5060977;28;20242;-84
2021/08/15 00:33:10;;;;;;;14.82;7.00;;;16.50;99.90;;;;;;5062454;28;20239;-85
2021/08/15 00:35:37;;;;;;;17.58;8.13;;;16.40;99.90;;;;;;5063227;28;20301;-84
2021/08/15 00:38:04;;;;;;;14.60;7.40;;;16.20;99.90;;;;;;5056458;28;20238;-84
2021/08/15 00:40:31;;;;;;;16.90;7.45;;;16.30;99.90;;;;;;5054679;28;20223;-85
2021/08/15 00:42:59;;;;;;;13.43;6.95;;;16.40;99.90;;;;;;5053805;28;20234;-84
2021/08/15 00:45:26;;;;;;;13.70;6.85;;;16.30;99.90;;;;;;5053115;28;20267;-84
2021/08/15 00:47:53;;;;;;;14.43;7.63;;;16.10;99.90;;;;;;5056778;28;20203;-84
2021/08/15 00:50:20;;;;;;;13.38;7.97;;;16.20;99.90;;;;;;5056260;28;20238;-84
2021/08/15 00:52:47;;;;;;;17.35;8.07;;;16.10;99.90;;;;;;5063008;28;20206;-84
2021/08/15 00:55:14;;;;;;;15.40;7.80;;;16.20;99.90;;;;;;5059689;28;20198;-85
2021/08/15 00:57:47;;;;;;;13.93;7.93;;;16.10;99.90;;;;;;5064678;28;20672;-84
2021/08/15 01:00:16;;;;;;;15.63;7.97;;;16.10;99.90;;;;;;5060209;28;20251;-85
2021/08/15 01:02:46;;;;;;;15.23;8.63;;;16.00;99.90;;;;;;5052050;28;20203;-85
2021/08/15 01:05:13;;;;;;;13.35;7.10;;;16.00;99.90;;;;;;5056185;28;20258;-85
2021/08/15 01:07:40;;;;;;;13.07;6.90;;;16.10;99.90;;;;;;5056914;28;20295;-85
2021/08/15 01:10:08;;;;;;;13.35;7.30;;;15.90;99.90;;;;;;5057920;28;20243;-85
2021/08/15 01:12:35;;;;;;;13.30;7.30;;;16.00;99.90;;;;;;5049688;28;20207;-85
2021/08/15 01:15:02;;;;;;;15.02;7.78;;;16.00;99.90;;;;;;5061813;28;20222;-85
2021/08/15 01:17:31;;;;;;;17.73;9.87;;;15.80;99.90;;;;;;5054218;28;20239;-83
2021/08/15 01:19:58;;;;;;;21.05;10.43;;;15.80;99.90;;;;;;5058283;28;20269;-85
2021/08/15 01:22:26;;;;;;;19.23;9.77;;;15.90;99.90;;;;;;5060139;28;20241;-85
2021/08/15 01:24:53;;;;;;;23.05;11.60;;;16.00;99.90;;;;;;5060395;28;20294;-85
2021/08/15 01:27:21;;;;;;;17.47;12.13;;;15.90;99.90;;;;;;5065035;28;20207;-84
2021/08/15 01:29:50;;;;;;;25.33;15.60;;;15.50;99.90;;;;;;5074202;28;20242;-85
2021/08/15 01:32:20;;;;;;;25.40;14.07;;;15.70;99.90;;;;;;5065774;28;20644;-85
2021/08/15 01:34:47;;;;;;;22.42;12.82;;;15.60;99.90;;;;;;5045876;28;20199;-85
2021/08/15 01:37:14;;;;;;;24.40;13.05;;;15.70;99.90;;;;;;5049679;28;20223;-85
2021/08/15 01:39:41;;;;;;;18.65;10.70;;;15.70;99.90;;;;;;5055767;28;20254;-86
2021/08/15 01:42:08;;;;;;;15.85;9.50;;;15.60;99.90;;;;;;5047089;28;20246;-85
2021/08/15 01:44:35;;;;;;;18.17;8.23;;;15.70;99.90;;;;;;5050763;28;20230;-85
2021/08/15 01:47:04;;;;;;;15.13;8.45;;;15.80;99.90;;;;;;5056983;28;20225;-85
2021/08/15 01:49:30;;;;;;;14.70;7.10;;;15.80;99.90;;;;;;5058763;28;20215;-86
2021/08/15 01:51:57;;;;;;;15.25;7.65;;;15.60;99.90;;;;;;5056960;28;20203;-85
2021/08/15 01:54:24;;;;;;;15.25;7.88;;;15.40;99.90;;;;;;5058139;28;20235;-83
2021/08/15 01:56:51;;;;;;;15.02;7.15;;;15.40;99.90;;;;;;5062102;28;20223;-86
2021/08/15 01:59:18;;;;;;;13.63;7.18;;;15.40;99.90;;;;;;5061410;28;20249;-85
2021/08/15 02:01:45;;;;;;;14.03;6.63;;;15.10;99.90;;;;;;5060193;28;20291;-86
2021/08/15 02:04:13;;;;;;;10.75;6.53;;;15.20;99.90;;;;;;5060560;28;20199;-85
2021/08/15 02:06:40;;;;;;;13.13;7.07;;;15.30;99.90;;;;;;5049057;28;20271;-86
2021/08/15 02:09:07;;;;;;;16.30;6.70;;;15.00;99.90;;;;;;5056673;28;20245;-85
2021/08/15 02:11:34;;;;;;;12.53;6.37;;;15.20;99.90;;;;;;5060394;28;20246;-84
2021/08/15 02:14:01;;;;;;;15.63;7.47;;;15.20;99.90;;;;;;5056913;28;20230;-85
2021/08/15 02:16:29;;;;;;;14.37;6.40;;;15.10;99.90;;;;;;5061498;28;20207;-85
2021/08/15 02:18:55;;;;;;;11.90;6.43;;;15.20;99.90;;;;;;5061902;28;20230;-84
2021/08/15 02:21:24;;;;;;;13.20;6.77;;;15.30;99.90;;;;;;5062740;28;20310;-85
2021/08/15 02:23:51;;;;;;;15.03;7.20;;;15.20;99.90;;;;;;5062652;28;20223;-85
2021/08/15 02:26:17;;;;;;;16.73;7.90;;;15.10;99.90;;;;;;5065363;28;20234;-86
2021/08/15 02:28:44;;;;;;;15.57;7.90;;;15.00;99.90;;;;;;5060795;28;20253;-85
2021/08/15 02:31:11;;;;;;;13.77;7.50;;;15.00;99.90;;;;;;5059179;28;20223;-85
2021/08/15 02:33:38;;;;;;;14.02;7.35;;;15.00;99.90;;;;;;5067576;28;20261;-86
2021/08/15 02:36:05;;;;;;;15.77;7.87;;;15.00;99.90;;;;;;5058973;28;20226;-85
2021/08/15 02:38:33;;;;;;;15.00;7.63;;;14.90;99.90;;;;;;5061451;28;20234;-86
2021/08/15 02:41:00;;;;;;;11.77;7.10;;;15.00;99.90;;;;;;5055028;28;20287;-84
2021/08/15 02:43:27;;;;;;;14.17;8.17;;;15.10;99.90;;;;;;5067868;28;20230;-85
2021/08/15 02:45:54;;;;;;;12.27;7.07;;;14.90;99.90;;;;;;5061883;28;20323;-85
2021/08/15 02:48:21;;;;;;;12.80;7.63;;;15.10;99.90;;;;;;5054841;28;20281;-86
2021/08/15 02:50:48;;;;;;;16.43;8.37;;;15.10;99.90;;;;;;5052818;28;20299;-84
2021/08/15 02:53:14;;;;;;;15.87;8.03;;;15.10;99.90;;;;;;5061144;28;20736;-85
2021/08/15 02:55:43;;;;;;;18.20;7.90;;;14.90;99.90;;;;;;5059322;28;20271;-84
2021/08/15 02:58:09;;;;;;;13.87;7.67;;;14.90;99.90;;;;;;5054233;28;20230;-84
2021/08/15 03:00:36;;;;;;;14.67;7.63;;;15.00;99.90;;;;;;5059062;28;20645;-85
2021/08/15 03:03:03;;;;;;;15.13;8.03;;;15.10;99.90;;;;;;5064182;28;20222;-84
2021/08/15 03:05:30;;;;;;;13.80;7.47;;;15.00;99.90;;;;;;5061787;28;20223;-84
2021/08/15 03:07:57;;;;;;;12.67;7.57;;;15.00;99.90;;;;;;5060499;28;20238;-85
2021/08/15 03:10:24;;;;;;;16.07;7.63;;;14.80;99.90;;;;;;5064503;28;20202;-85
2021/08/15 03:12:52;;;;;;;15.77;8.00;;;14.70;99.90;;;;;;5055776;28;20266;-85
2021/08/15 03:15:19;;;;;;;13.20;7.63;;;14.70;99.90;;;;;;5055470;28;20200;-85
2021/08/15 03:17:46;;;;;;;15.67;7.70;;;14.60;99.90;;;;;;5062170;28;20235;-86
2021/08/15 03:20:14;;;;;;;17.07;7.83;;;14.70;99.90;;;;;;5064407;28;20256;-85
2021/08/15 03:22:41;;;;;;;16.33;8.50;;;14.50;99.90;;;;;;5067597;28;20207;-86
2021/08/15 03:25:08;;;;;;;13.63;7.10;;;14.30;99.90;;;;;;5061874;28;20203;-84
2021/08/15 03:27:35;;;;;;;11.97;7.27;;;14.40;99.90;;;;;;5052132;28;20287;-86
2021/08/15 03:30:04;;;;;;;10.67;7.20;;;14.60;99.90;;;;;;5051311;28;20306;-85
2021/08/15 03:32:31;;;;;;;14.37;6.77;;;14.60;99.90;;;;;;5051446;28;20274;-85
2021/08/15 03:34:58;;;;;;;17.47;7.57;;;14.70;99.90;;;;;;5061422;28;20208;-84
2021/08/15 03:37:24;;;;;;;12.80;7.13;;;14.80;99.90;;;;;;5058560;28;20250;-84
2021/08/15 03:39:53;;;;;;;12.30;6.73;;;14.70;99.90;;;;;;5059024;28;20234;-85
2021/08/15 03:42:20;;;;;;;13.90;7.30;;;14.50;99.90;;;;;;5064146;28;20245;-84
2021/08/15 03:44:46;;;;;;;14.40;7.60;;;14.30;99.90;;;;;;5069791;28;20230;-84
2021/08/15 03:47:15;;;;;;;15.33;7.53;;;14.20;99.90;;;;;;5065726;28;20203;-85
2021/08/15 03:49:42;;;;;;;13.93;6.87;;;14.30;99.90;;;;;;5060844;28;20254;-84
2021/08/15 03:52:08;;;;;;;14.60;7.73;;;14.50;99.90;;;;;;5065621;28;20253;-85
2021/08/15 03:54:35;;;;;;;13.20;7.27;;;14.60;99.90;;;;;;5062333;28;20519;-85
2021/08/15 03:57:02;;;;;;;14.60;6.90;;;14.70;99.90;;;;;;5053244;28;20230;-85
2021/08/15 03:59:29;;;;;;;12.80;6.97;;;14.70;99.90;;;;;;5058172;28;20299;-86
2021/08/15 04:01:56;;;;;;;12.97;6.73;;;14.40;99.90;;;;;;5061859;28;20218;-84
2021/08/15 04:04:24;;;;;;;17.37;7.57;;;14.30;99.90;;;;;;5062999;28;20213;-85
2021/08/15 04:06:51;;;;;;;14.60;7.03;;;14.50;99.90;;;;;;5065231;28;20287;-85
2021/08/15 04:09:18;;;;;;;15.20;7.03;;;14.40;99.90;;;;;;5061379;28;20606;-85
2021/08/15 04:11:45;;;;;;;12.70;6.93;;;14.20;99.90;;;;;;5056423;28;20274;-86
2021/08/15 04:14:12;;;;;;;11.13;6.53;;;14.20;99.90;;;;;;5065113;28;20200;-86
2021/08/15 04:16:38;;;;;;;11.83;7.10;;;14.30;99.90;;;;;;5052853;28;20226;-84
2021/08/15 04:19:05;;;;;;;11.47;6.70;;;14.30;99.90;;;;;;5059119;28;20251;-84
2021/08/15 04:21:33;;;;;;;14.00;7.03;;;14.30;99.90;;;;;;5058669;28;20689;-84
2021/08/15 04:24:00;;;;;;;11.27;6.47;;;14.40;99.90;;;;;;5054424;28;20230;-84
2021/08/15 04:26:28;;;;;;;13.80;7.20;;;14.30;99.90;;;;;;5058145;28;20203;-84
2021/08/15 04:28:55;;;;;;;12.97;6.97;;;14.50;99.90;;;;;;5059218;28;20233;-84
2021/08/15 04:31:22;;;;;;;13.73;6.73;;;14.60;99.90;;;;;;5058177;28;20247;-84
2021/08/15 04:33:48;;;;;;;12.33;6.60;;;14.60;99.90;;;;;;5053830;28;20195;-85
2021/08/15 04:36:15;;;;;;;15.07;6.77;;;14.60;99.90;;;;;;5053634;28;20267;-84
2021/08/15 04:38:44;;;;;;;15.63;7.03;;;14.70;99.90;;;;;;5062821;28;20225;-86
2021/08/15 04:41:10;;;;;;;11.93;6.80;;;14.80;99.90;;;;;;5060047;28;20235;-85
2021/08/15 04:43:37;;;;;;;12.63;7.30;;;14.80;99.90;;;;;;5054541;28;20239;-85
2021/08/15 04:46:04;;;;;;;11.37;6.77;;;14.60;99.90;;;;;;5059447;28;20230;-84
2021/08/15 04:48:31;;;;;;;9.63;5.90;;;14.70;99.90;;;;;;5057212;28;20251;-85
2021/08/15 04:50:58;;;;;;;11.57;6.43;;;14.70;99.90;;;;;;5057719;28;20242;-82
2021/08/15 04:53:26;;;;;;;11.37;6.87;;;14.70;99.90;;;;;;5056770;28;20218;-82
2021/08/15 04:55:54;;;;;;;11.50;6.77;;;14.70;99.90;;;;;;5055042;28;20226;-82
2021/08/15 04:58:21;;;;;;;10.83;6.80;;;14.60;99.90;;;;;;5054554;28;20318;-82
2021/08/15 05:00:48;;;;;;;14.93;8.10;;;14.70;99.90;;;;;;5051454;28;20199;-82
2021/08/15 05:03:36;;;;;;;11.93;7.37;;;14.90;99.90;;;;;;5064943;28;20698;-83
2021/08/15 05:06:16;;;;;;;11.70;7.10;;;15.00;99.90;;;;;;5059016;28;20203;-83
2021/08/15 05:09:13;;;;;;;13.27;7.30;;;15.10;99.90;;;;;;5056465;28;20287;-84
2021/08/15 05:15:35;;;;;;;13.97;7.23;;;15.30;99.90;;;;;;5052849;28;20199;-83
2021/08/15 05:22:07;;;;;;;10.70;7.20;;;15.30;99.90;;;;;;4985377;28;20318;-83
2021/08/15 05:28:30;;;;;;;12.17;7.20;;;15.40;99.90;;;;;;5035116;28;20490;-84
2021/08/15 05:31:48;;;;;;;13.10;7.23;;;15.50;99.90;;;;;;5057048;28;20214;-82
2021/08/15 05:37:31;;;;;;;14.27;7.97;;;15.70;99.90;;;;;;5058788;28;20199;-83
2021/08/15 05:42:50;;;;;;;14.80;8.47;;;16.00;99.90;;;;;;5059136;28;20223;-84
2021/08/15 05:45:17;;;;;;;18.07;8.37;;;16.20;99.90;;;;;;5059569;28;20211;-83
2021/08/15 05:47:44;;;;;;;14.50;7.73;;;16.30;99.90;;;;;;5060149;28;20207;-84
2021/08/15 05:50:44;;;;;;;12.33;8.53;;;16.20;99.90;;;;;;5062645;28;20668;-82
2021/08/15 05:53:15;;;;;;;16.20;7.90;;;16.10;99.90;;;;;;5055755;28;20199;-83
2021/08/15 05:55:42;;;;;;;16.98;8.43;;;16.40;99.90;;;;;;5057238;28;20207;-83
2021/08/15 05:58:09;;;;;;;15.82;8.73;;;16.60;99.90;;;;;;5051021;28;20203;-84
2021/08/15 06:00:36;;;;;;;14.60;8.03;;;16.60;99.90;;;;;;5060561;28;20206;-82
2021/08/15 06:03:10;;;;;;;16.07;8.43;;;16.70;99.90;;;;;;5058888;28;20223;-83
2021/08/15 06:05:47;;;;;;;15.80;8.55;;;16.80;99.90;;;;;;5060448;28;20215;-84
2021/08/15 06:08:16;;;;;;;13.55;8.20;;;16.80;99.90;;;;;;5058544;28;20233;-84
2021/08/15 06:10:43;;;;;;;16.70;8.83;;;17.10;99.90;;;;;;5060725;28;20204;-85
2021/08/15 06:13:10;;;;;;;14.18;8.10;;;17.10;99.90;;;;;;5059326;28;20226;-83
2021/08/15 06:15:37;;;;;;;13.25;8.10;;;17.00;99.90;;;;;;5066543;28;20243;-83
2021/08/15 06:18:04;;;;;;;15.07;8.10;;;17.30;99.90;;;;;;5054905;28;20267;-83
2021/08/15 06:20:31;;;;;;;18.25;8.93;;;17.20;99.90;;;;;;5052845;28;20235;-83
2021/08/15 06:22:58;;;;;;;17.80;8.40;;;17.30;99.90;;;;;;5057340;28;20253;-83
2021/08/15 06:25:26;;;;;;;20.17;11.32;;;17.40;99.90;;;;;;5058707;28;20309;-83
2021/08/15 06:27:53;;;;;;;16.73;8.27;;;17.70;99.90;;;;;;5058092;28;20294;-82
2021/08/15 06:30:21;;;;;;;15.48;8.60;;;17.60;99.90;;;;;;5057430;28;20286;-83
2021/08/15 06:32:49;;;;;;;16.13;8.30;;;17.80;99.90;;;;;;5059873;28;20229;-83
2021/08/15 06:35:17;;;;;;;18.30;7.90;;;17.90;99.90;;;;;;5056028;28;20290;-83
2021/08/15 06:37:44;;;;;;;16.00;8.48;;;18.20;99.90;;;;;;5058362;28;20482;-83
2021/08/15 06:40:12;;;;;;;16.60;8.50;;;18.20;99.90;;;;;;5055292;28;20283;-83
2021/08/15 06:42:40;;;;;;;15.18;8.13;;;18.40;99.90;;;;;;5057753;28;20232;-83
2021/08/15 06:45:09;;;;;;;16.17;8.00;;;18.60;99.90;;;;;;5054604;28;20259;-84
2021/08/15 06:47:36;;;;;;;17.05;8.00;;;18.70;99.90;;;;;;5057989;28;20263;-82
2021/08/15 06:50:03;;;;;;;15.77;8.07;;;19.20;99.90;;;;;;5054618;28;20254;-83
2021/08/15 06:52:30;;;;;;;12.90;7.50;;;19.40;99.90;;;;;;5058376;28;20187;-83
2021/08/15 06:54:57;;;;;;;16.80;7.72;;;19.30;99.90;;;;;;5058776;28;20207;-83
2021/08/15 06:57:24;;;;;;;17.23;7.47;;;19.30;99.90;;;;;;5065418;28;20199;-83
2021/08/15 06:59:53;;;;;;;12.75;7.45;;;19.30;99.90;;;;;;5055699;28;20238;-83
2021/08/15 07:02:19;;;;;;;14.77;7.07;;;19.40;99.90;;;;;;5057209;28;20229;-83
2021/08/15 07:04:47;;;;;;;14.48;7.45;;;19.40;99.90;;;;;;5046652;28;20275;-83
2021/08/15 07:07:13;;;;;;;13.27;7.07;;;19.40;99.90;;;;;;5046974;28;20212;-83
2021/08/15 07:09:40;;;;;;;15.73;8.27;;;19.40;99.90;;;;;;5046145;28;20314;-85
2021/08/15 07:12:08;;;;;;;16.30;6.93;;;19.40;99.90;;;;;;5051542;28;20722;-83
2021/08/15 07:14:37;;;;;;;16.52;8.00;;;19.50;99.90;;;;;;5049244;28;20283;-84
2021/08/15 07:17:06;;;;;;;15.48;7.13;;;19.50;99.90;;;;;;5060598;28;20203;-83
2021/08/15 07:19:34;;;;;;;13.75;7.22;;;19.60;99.90;;;;;;5054893;28;20228;-83
2021/08/15 07:22:02;;;;;;;18.30;7.68;;;19.50;99.90;;;;;;5055062;28;20219;-83
2021/08/15 07:24:30;;;;;;;13.73;7.72;;;19.60;99.90;;;;;;5052164;28;20230;-85
2021/08/15 07:26:57;;;;;;;13.02;7.28;;;19.60;99.90;;;;;;5053452;28;20219;-84
2021/08/15 07:29:24;;;;;;;16.15;7.97;;;19.60;99.90;;;;;;5053911;28;20247;-82
2021/08/15 07:31:51;;;;;;;15.57;7.88;;;19.60;99.90;;;;;;5053547;28;20203;-83
2021/08/15 07:34:19;;;;;;;14.45;6.75;;;19.60;99.90;;;;;;5057654;28;20219;-84
2021/08/15 07:36:47;;;;;;;14.32;7.20;;;19.70;99.90;;;;;;5054488;28;20275;-85
2021/08/15 07:39:14;;;;;;;13.60;7.07;;;19.80;99.90;;;;;;5052413;28;20252;-84
2021/08/15 07:41:41;;;;;;;14.93;7.47;;;20.00;99.90;;;;;;5054587;28;20677;-84
2021/08/15 07:44:08;;;;;;;14.63;7.05;;;20.10;99.90;;;;;;5052177;28;20223;-84
2021/08/15 07:46:36;;;;;;;12.43;7.40;;;20.30;99.90;;;;;;5056555;28;20234;-84
2021/08/15 07:49:04;;;;;;;16.20;7.57;;;20.40;99.90;;;;;;5055038;28;20228;-84
2021/08/15 07:51:32;;;;;;;15.13;7.90;;;20.50;99.90;;;;;;5057618;28;20238;-84
2021/08/15 07:53:59;;;;;;;18.45;8.35;;;20.30;99.90;;;;;;5053770;28;20214;-84
2021/08/15 07:56:26;;;;;;;17.83;8.63;;;20.40;99.90;;;;;;5058305;28;20221;-84
2021/08/15 07:58:53;;;;;;;17.63;8.35;;;20.50;99.90;;;;;;5056277;28;20301;-83
2021/08/15 08:01:20;;;;;;;16.15;8.10;;;20.40;99.90;;;;;;5052523;28;20218;-82
2021/08/15 08:06:29;;;;;;;14.45;7.90;;;20.40;99.90;;;;;;5057553;28;20203;-85
2021/08/15 08:08:58;;;;;;;16.33;10.00;;;20.50;99.90;;;;;;5051082;28;20297;-82
2021/08/15 08:11:25;;;;;;;15.85;7.95;;;20.60;99.90;;;;;;5048802;28;20297;-83
2021/08/15 08:13:52;;;;;;;18.40;9.18;;;20.60;99.90;;;;;;5055101;28;20282;-83
2021/08/15 08:16:19;;;;;;;14.65;8.00;;;20.60;99.90;;;;;;5055461;28;20215;-82
2021/08/15 08:18:48;;;;;;;17.17;8.13;;;20.60;99.90;;;;;;5058100;28;20229;-82
2021/08/15 08:21:14;;;;;;;19.88;8.25;;;20.60;99.90;;;;;;5057992;28;20271;-82
2021/08/15 08:23:42;;;;;;;16.83;8.60;;;20.90;99.90;;;;;;5056666;28;20223;-82
2021/08/15 08:26:10;;;;;;;16.58;8.20;;;21.00;99.90;;;;;;5058321;28;21035;-82
2021/08/15 08:28:37;;;;;;;17.52;7.85;;;21.20;99.90;;;;;;5059054;28;20306;-83
2021/08/15 08:31:04;;;;;;;13.50;8.27;;;21.40;99.90;;;;;;5055024;28;20287;-83
2021/08/15 08:33:30;;;;;;;14.63;8.52;;;21.40;99.90;;;;;;5062399;28;20249;-82
2021/08/15 08:35:58;;;;;;;15.23;8.25;;;21.60;99.90;;;;;;5061638;28;20245;-82
2021/08/15 08:38:25;;;;;;;15.18;8.38;;;21.40;99.90;;;;;;5061782;28;20228;-82
2021/08/15 08:40:54;;;;;;;15.60;7.78;;;21.50;99.90;;;;;;5063261;28;20203;-83
2021/08/15 08:43:22;;;;;;;17.25;8.75;;;21.60;99.90;;;;;;5048705;28;20310;-82
2021/08/15 08:45:49;;;;;;;16.75;9.60;;;21.50;99.90;;;;;;5047639;28;20238;-83
2021/08/15 08:48:17;;;;;;;19.00;8.77;;;21.50;99.90;;;;;;5052961;28;20214;-82
2021/08/15 08:50:44;;;;;;;23.90;12.02;;;21.50;99.90;;;;;;5050493;28;20221;-83
2021/08/15 08:53:11;;;;;;;18.70;10.35;;;21.40;99.90;;;;;;5052697;28;20267;-83
2021/08/15 08:55:38;;;;;;;20.90;9.82;;;21.40;99.90;;;;;;5038243;28;20212;-83
2021/08/15 08:58:05;;;;;;;15.13;9.55;;;21.60;99.90;;;;;;5043261;28;20264;-82
2021/08/15 09:00:33;;;;;;;19.30;9.63;;;21.70;99.90;;;;;;5043993;28;20611;-82
2021/08/15 09:03:00;;;;;;;17.50;10.85;;;22.30;99.90;;;;;;5052998;28;20223;-83
2021/08/15 09:05:32;;;;;;;17.90;9.82;;;22.60;99.90;;;;;;5035244;28;20239;-81
2021/08/15 09:07:59;;;;;;;15.73;9.50;;;22.70;99.90;;;;;;5047755;28;20210;-83
2021/08/15 09:10:32;;;;;;;19.20;10.60;;;22.60;99.90;;;;;;5049326;28;20271;-83
2021/08/15 09:22:37;;;;;;;17.67;10.18;;;23.20;99.90;;;;;;5032695;28;20226;-88
2021/08/15 09:36:32;;;;;;;15.77;8.90;;;25.50;99.90;;;;;;5420312;22;20650;-88
2021/08/15 09:45:17;;;;;;;12.13;7.68;;;26.00;99.90;;;;;;5914583;22;21746;-88
2021/08/15 09:47:47;;;;;;;14.55;8.52;;;26.20;99.90;;;;;;5062571;28;20210;-87
2021/08/15 09:50:24;;;;;;;13.40;8.07;;;26.30;99.90;;;;;;5066059;28;20234;-87
2021/08/15 09:52:53;;;;;;;9.32;4.97;;;26.90;99.90;;;;;;5057477;28;20215;-88
2021/08/15 09:55:45;;;;;;;7.85;5.30;;;27.00;99.90;;;;;;5060774;28;20649;-89
2021/08/15 09:58:17;;;;;;;8.02;5.18;;;26.10;99.90;;;;;;5057257;28;20288;-90
2021/08/15 10:00:57;;;;;;;9.23;5.75;;;26.60;99.90;;;;;;5062556;28;20198;-89
2021/08/15 10:03:48;;;;;;;13.32;6.15;;;26.20;99.90;;;;;;5050266;28;20232;-89
2021/08/15 10:06:29;;;;;;;11.98;5.97;;;26.60;99.90;;;;;;5066432;28;20206;-89
2021/08/15 10:12:19;;;;;;;9.65;6.47;;;26.60;99.90;;;;;;5059171;28;20198;-88
2021/08/15 10:14:48;;;;;;;12.23;6.55;;;26.60;99.90;;;;;;5066249;28;20198;-90
2021/08/15 10:17:17;;;;;;;12.57;7.70;;;26.80;99.90;;;;;;5067089;28;20215;-90
2021/08/15 10:19:49;;;;;;;11.35;6.55;;;26.60;99.90;;;;;;5064441;28;20265;-89
2021/08/15 10:22:22;;;;;;;11.10;6.82;;;26.40;99.90;;;;;;5063721;28;20756;-88
2021/08/15 10:24:53;;;;;;;10.63;6.45;;;26.20;99.90;;;;;;5062808;28;20264;-89
2021/08/15 10:27:49;;;;;;;10.02;5.60;;;25.80;99.90;;;;;;5064982;28;20238;-89
2021/08/15 10:30:45;;;;;;;10.77;4.80;;;26.30;99.90;;;;;;5053255;28;20222;-89
2021/08/15 10:33:23;;;;;;;7.20;5.03;;;27.50;99.90;;;;;;5063647;28;20225;-89
2021/08/15 10:36:26;;;;;;;7.50;4.63;;;27.40;99.90;;;;;;5061663;28;20297;-90
2021/08/15 10:39:02;;;;;;;12.05;5.70;;;26.70;99.90;;;;;;5056128;28;20226;-89
2021/08/15 10:41:49;;;;;;;8.23;4.32;;;26.80;99.90;;;;;;5061724;28;20739;-89
2021/08/15 10:44:20;;;;;;;7.32;4.90;;;27.90;99.90;;;;;;5067465;28;20343;-90
2021/08/15 10:47:13;;;;;;;7.93;4.45;;;27.40;99.90;;;;;;5061679;28;20237;-90
2021/08/15 10:50:02;;;;;;;7.82;5.43;;;27.50;99.90;;;;;;5062263;28;20199;-90
2021/08/15 10:52:37;;;;;;;8.82;4.72;;;27.70;99.90;;;;;;5070261;28;20234;-90
2021/08/15 10:55:16;;;;;;;6.78;4.25;;;27.90;99.90;;;;;;5067654;28;20284;-89
2021/08/15 10:57:55;;;;;;;8.02;4.60;;;28.10;99.90;;;;;;5070216;28;20643;-89
2021/08/15 11:00:50;;;;;;;5.70;4.35;;;28.00;99.90;;;;;;5062601;28;20657;-91
2021/08/15 11:03:37;;;;;;;9.48;5.30;;;28.20;99.90;;;;;;5060799;28;20222;-88
2021/08/15 11:06:06;;;;;;;6.70;4.63;;;28.10;99.90;;;;;;5064190;28;20206;-89
2021/08/15 11:08:56;;;;;;;8.25;5.15;;;28.60;99.90;;;;;;5068923;28;20640;-88
2021/08/15 11:11:29;;;;;;;7.47;4.82;;;28.50;99.90;;;;;;5063260;28;20706;-89
2021/08/15 11:14:31;;;;;;;9.30;5.28;;;27.70;99.90;;;;;;5071222;28;20593;-90
2021/08/15 11:17:13;;;;;;;8.38;5.55;;;27.50;99.90;;;;;;4987460;28;20259;-89
2021/08/15 11:19:45;;;;;;;7.18;5.53;;;28.30;99.90;;;;;;4984396;28;20595;-89
2021/08/15 11:22:28;;;;;;;8.57;5.78;;;28.60;99.90;;;;;;5035111;28;20581;-90
2021/08/15 11:25:01;;;;;;;7.38;5.20;;;27.80;99.90;;;;;;5058325;28;20207;-90
2021/08/15 11:27:34;;;;;;;7.43;5.68;;;27.60;99.90;;;;;;5065806;28;20263;-89
2021/08/15 11:30:10;;;;;;;10.00;5.18;;;27.80;99.90;;;;;;5068378;28;20228;-89
2021/08/15 11:32:37;;;;;;;7.75;4.65;;;27.90;99.90;;;;;;5068320;28;20334;-89
2021/08/15 11:35:10;;;;;;;7.15;4.70;;;27.50;99.90;;;;;;5065103;28;20669;-91
2021/08/15 11:37:39;;;;;;;7.82;5.07;;;28.20;99.90;;;;;;5063885;28;20601;-90
2021/08/15 11:40:20;;;;;;;7.22;5.32;;;28.10;99.90;;;;;;5070298;28;20729;-91
2021/08/15 11:43:34;;;;;;;8.70;5.20;;;28.60;99.90;;;;;;5068480;28;20240;-89
2021/08/15 11:46:02;;;;;;;7.38;5.50;;;28.10;99.90;;;;;;5030836;28;20772;-87
2021/08/15 11:48:30;;;;;;;9.27;5.63;;;27.90;99.90;;;;;;5063460;28;20230;-87
2021/08/15 11:50:59;;;;;;;8.85;5.30;;;27.60;99.90;;;;;;5070673;28;20207;-88
2021/08/15 11:53:27;;;;;;;10.80;5.43;;;27.60;99.90;;;;;;5066890;28;20715;-87
2021/08/15 11:55:55;;;;;;;7.43;4.93;;;27.20;99.90;;;;;;5069844;28;20245;-87
2021/08/15 11:58:23;;;;;;;8.85;5.10;;;27.20;99.90;;;;;;5065811;28;20207;-88
2021/08/15 12:00:50;;;;;;;12.20;5.32;;;27.10;99.90;;;;;;5067320;28;20793;-87
2021/08/15 12:03:26;;;;;;;7.78;4.63;;;27.10;99.90;;;;;;5066629;28;20730;-88
2021/08/15 12:05:56;;;;;;;6.30;4.45;;;27.60;99.90;;;;;;5066136;28;20720;-88
2021/08/15 12:08:34;;;;;;;9.20;5.00;;;27.20;99.90;;;;;;5068612;28;20299;-88
2021/08/15 12:11:01;;;;;;;10.38;4.50;;;27.30;99.90;;;;;;5070372;28;20202;-89
2021/08/15 12:13:33;;;;;;;7.03;4.97;;;27.60;99.90;;;;;;5070687;28;20222;-89
2021/08/15 12:16:14;;;;;;;7.35;4.30;;;27.30;99.90;;;;;;5064392;28;20681;-89
2021/08/15 12:18:44;;;;;;;5.90;4.40;;;27.50;99.90;;;;;;5068574;28;20206;-89
2021/08/15 12:21:22;;;;;;;6.65;4.45;;;27.80;99.90;;;;;;5070308;28;20631;-89
2021/08/15 12:24:05;;;;;;;8.43;4.30;;;27.80;99.90;;;;;;5071185;28;20226;-89
2021/08/15 12:26:33;;;;;;;8.43;5.03;;;27.20;99.90;;;;;;5068720;28;20212;-89
2021/08/15 12:29:02;;;;;;;6.72;4.97;;;27.70;99.90;;;;;;5067558;28;20289;-89
2021/08/15 12:31:30;;;;;;;12.32;4.50;;;28.10;99.90;;;;;;5071427;28;20237;-89
2021/08/15 12:34:07;;;;;;;9.15;4.70;;;27.90;99.90;;;;;;5071882;28;20363;-88
2021/08/15 12:36:43;;;;;;;4.68;3.53;;;28.60;99.90;;;;;;5074155;28;20201;-89
2021/08/15 12:39:10;;;;;;;5.82;4.10;;;29.00;99.90;;;;;;5077839;28;20210;-89
2021/08/15 12:41:49;;;;;;;8.43;4.10;;;28.90;99.90;;;;;;5073057;28;20284;-89
2021/08/15 12:44:18;;;;;;;6.85;4.60;;;29.00;99.90;;;;;;5063573;28;20222;-88
2021/08/15 12:46:56;;;;;;;7.85;4.80;;;28.80;99.90;;;;;;5080212;28;20240;-88
2021/08/15 12:49:26;;;;;;;6.10;4.45;;;27.90;99.90;;;;;;5072225;28;20824;-88
2021/08/15 12:52:09;;;;;;;6.10;4.38;;;28.10;99.90;;;;;;5066447;28;20686;-88
2021/08/15 12:54:36;;;;;;;8.70;3.92;;;28.20;99.90;;;;;;5061908;28;20198;-89
2021/08/15 12:57:03;;;;;;;5.82;4.28;;;28.20;99.90;;;;;;5065961;28;20281;-89
2021/08/15 12:59:30;;;;;;;7.03;4.25;;;27.60;99.90;;;;;;5070457;28;20266;-88
2021/08/15 13:01:57;;;;;;;4.85;3.83;;;27.90;99.90;;;;;;5077424;28;20284;-89
2021/08/15 13:04:25;;;;;;;8.55;4.10;;;28.40;99.90;;;;;;5071678;28;20225;-88
2021/08/15 13:06:54;;;;;;;5.40;3.38;;;27.90;99.90;;;;;;5072639;28;20289;-89
2021/08/15 13:09:21;;;;;;;6.03;3.40;;;28.00;99.90;;;;;;5071500;28;20577;-89
2021/08/15 13:11:49;;;;;;;6.30;3.65;;;28.10;99.90;;;;;;5071566;28;20208;-89
2021/08/15 13:14:16;;;;;;;4.90;3.50;;;27.90;99.90;;;;;;5077385;28;20598;-88
2021/08/15 13:16:43;;;;;;;5.45;3.85;;;27.60;99.90;;;;;;5074796;28;20206;-89
2021/08/15 13:19:10;;;;;;;6.43;3.97;;;27.50;99.90;;;;;;5077171;28;20663;-88
2021/08/15 13:21:38;;;;;;;4.95;3.75;;;28.00;99.90;;;;;;5065134;28;20217;-88
2021/08/15 13:24:05;;;;;;;5.13;3.50;;;28.50;99.90;;;;;;5068645;28;20218;-88
2021/08/15 13:26:32;;;;;;;6.50;3.70;;;28.50;99.90;;;;;;5070743;28;20212;-87
2021/08/15 13:28:59;;;;;;;4.65;3.45;;;28.30;99.90;;;;;;5069789;28;20321;-89
2021/08/15 13:31:26;;;;;;;9.00;4.07;;;28.30;99.90;;;;;;5063674;28;20217;-88
2021/08/15 13:33:53;;;;;;;6.70;4.10;;;28.50;99.90;;;;;;5064940;28;20227;-88
2021/08/15 13:36:20;;;;;;;3.85;3.10;;;29.20;99.90;;;;;;5077591;28;20210;-88
2021/08/15 13:38:48;;;;;;;6.15;3.33;;;28.90;99.90;;;;;;5071795;28;20210;-88
2021/08/15 13:41:15;;;;;;;4.38;3.42;;;29.20;99.90;;;;;;5083053;28;20208;-88
2021/08/15 13:43:41;;;;;;;5.50;3.92;;;29.10;99.90;;;;;;5060915;28;20283;-89